Time;durP1;ratioP1;P1;durP2;ratioP2;P2;SDS_P1;SDS_P2;PMS_P1;PMS_P2;Temp;Humidity;BMP_temperature;BMP_pressure;BME280_temperature;BME280_humidity;BME280_pressure;Samples;Min_cycle;Max_cycle;Signal;HPM_P1;HPM_P2
2021/07/04 00:01:31;;;;;;;5.30;2.85;;;17.20;99.90;;;;;;5044615;28;20025;-73
2021/07/04 00:03:57;;;;;;;4.03;2.67;;;17.20;99.90;;;;;;5044449;28;20049;-72
2021/07/04 00:06:23;;;;;;;4.63;3.03;;;17.20;99.90;;;;;;5044869;28;20028;-72
2021/07/04 00:08:48;;;;;;;5.10;2.35;;;17.20;99.90;;;;;;5044693;28;20478;-72
2021/07/04 00:11:14;;;;;;;3.05;2.40;;;17.20;99.90;;;;;;5044230;28;20056;-72
2021/07/04 00:13:40;;;;;;;3.75;2.22;;;17.10;99.90;;;;;;5044535;28;20025;-72
2021/07/04 00:16:06;;;;;;;4.50;2.63;;;17.10;99.90;;;;;;5044027;28;20029;-73
2021/07/04 00:18:33;;;;;;;4.05;2.17;;;17.20;99.90;;;;;;5044183;28;20565;-72
2021/07/04 00:21:03;;;;;;;4.50;2.63;;;17.20;99.90;;;;;;5043446;28;20547;-73
2021/07/04 00:23:29;;;;;;;5.32;2.63;;;17.10;99.90;;;;;;5043994;28;20039;-73
2021/07/04 00:25:55;;;;;;;6.15;2.35;;;17.20;99.90;;;;;;5044580;28;20067;-72
2021/07/04 00:28:23;;;;;;;4.25;2.38;;;17.20;99.90;;;;;;5044492;28;20025;-72
2021/07/04 00:30:49;;;;;;;4.35;2.70;;;17.20;99.90;;;;;;5042822;28;20040;-72
2021/07/04 00:33:15;;;;;;;4.13;2.40;;;17.10;99.90;;;;;;5043752;28;20117;-73
2021/07/04 00:35:41;;;;;;;4.78;2.08;;;17.20;99.90;;;;;;5044148;28;20022;-72
2021/07/04 00:38:08;;;;;;;4.18;2.22;;;17.10;99.90;;;;;;5044318;28;20053;-73
2021/07/04 00:40:36;;;;;;;4.07;2.60;;;17.10;99.90;;;;;;5042677;28;20398;-72
2021/07/04 00:43:02;;;;;;;5.60;2.72;;;17.10;99.90;;;;;;5042493;28;20021;-73
2021/07/04 00:45:27;;;;;;;5.50;2.15;;;17.20;99.90;;;;;;5043868;28;20034;-73
2021/07/04 00:47:56;;;;;;;5.68;2.00;;;17.20;99.90;;;;;;5044122;28;20025;-73
2021/07/04 00:50:25;;;;;;;3.72;1.92;;;17.20;99.90;;;;;;5044032;28;20022;-73
2021/07/04 00:52:53;;;;;;;5.25;3.03;;;17.20;99.90;;;;;;5043559;28;20056;-72
2021/07/04 00:55:19;;;;;;;3.92;2.42;;;17.10;99.90;;;;;;5043986;28;20509;-73
2021/07/04 00:57:46;;;;;;;3.28;2.10;;;17.20;99.90;;;;;;5043761;28;20037;-73
2021/07/04 01:00:14;;;;;;;2.83;2.28;;;17.20;99.90;;;;;;5043681;28;20026;-72
2021/07/04 01:02:40;;;;;;;4.60;2.58;;;17.20;99.90;;;;;;5043885;28;20040;-72
2021/07/04 01:05:10;;;;;;;3.20;2.15;;;17.20;99.90;;;;;;5044009;28;20041;-74
2021/07/04 01:07:35;;;;;;;3.88;1.88;;;17.20;99.90;;;;;;5043484;28;20022;-72
2021/07/04 01:10:01;;;;;;;3.15;2.10;;;17.20;99.90;;;;;;5043822;28;20588;-73
2021/07/04 01:12:26;;;;;;;2.70;1.67;;;17.20;99.90;;;;;;5043999;28;20101;-73
2021/07/04 01:14:52;;;;;;;4.38;2.35;;;17.10;99.90;;;;;;5042102;28;20025;-73
2021/07/04 01:17:18;;;;;;;4.82;2.28;;;17.10;99.90;;;;;;5043974;28;20045;-72
2021/07/04 01:19:44;;;;;;;3.30;2.20;;;17.10;99.90;;;;;;5043250;28;20077;-72
2021/07/04 01:22:11;;;;;;;3.13;1.77;;;17.10;99.90;;;;;;5043391;28;20026;-72
2021/07/04 01:24:37;;;;;;;6.22;1.98;;;17.10;99.90;;;;;;5042105;28;20092;-72
2021/07/04 01:27:03;;;;;;;2.55;2.05;;;17.10;99.90;;;;;;5042089;28;20110;-73
2021/07/04 01:29:29;;;;;;;3.00;1.85;;;17.20;99.90;;;;;;5043471;28;20428;-73
2021/07/04 01:31:54;;;;;;;2.38;1.80;;;17.10;99.90;;;;;;5043571;28;20025;-73
2021/07/04 01:34:20;;;;;;;10.30;1.92;;;17.10;99.90;;;;;;5046207;28;20033;-72
2021/07/04 01:36:46;;;;;;;7.85;1.58;;;17.10;99.90;;;;;;5045638;28;20096;-72
2021/07/04 01:39:11;;;;;;;3.75;2.15;;;17.10;99.90;;;;;;5047198;28;20025;-72
2021/07/04 01:41:37;;;;;;;3.20;1.90;;;17.10;99.90;;;;;;5046755;28;20056;-72
2021/07/04 01:44:03;;;;;;;2.53;1.80;;;17.10;99.90;;;;;;5046758;28;20409;-72
2021/07/04 01:46:29;;;;;;;2.97;1.73;;;17.10;99.90;;;;;;5046897;28;20596;-72
2021/07/04 01:48:55;;;;;;;3.17;2.17;;;17.20;99.90;;;;;;5047332;28;20121;-72
2021/07/04 01:51:20;;;;;;;7.18;2.05;;;17.10;99.90;;;;;;5046903;28;20041;-72
2021/07/04 01:53:46;;;;;;;1.83;1.42;;;17.10;99.90;;;;;;5046845;28;20049;-72
2021/07/04 01:56:12;;;;;;;2.88;1.70;;;17.10;99.90;;;;;;5046548;28;20076;-72
2021/07/04 01:58:39;;;;;;;2.42;1.73;;;17.10;99.90;;;;;;5046509;28;20029;-71
2021/07/04 02:01:06;;;;;;;2.95;1.70;;;17.10;99.90;;;;;;5046947;28;20072;-71
2021/07/04 02:03:32;;;;;;;3.45;2.05;;;17.00;99.90;;;;;;5046425;28;20042;-72
2021/07/04 02:05:58;;;;;;;7.32;2.42;;;17.00;99.90;;;;;;5046512;28;20029;-72
2021/07/04 02:08:24;;;;;;;4.13;1.95;;;17.00;99.90;;;;;;5046698;28;20026;-72
2021/07/04 02:10:50;;;;;;;3.45;1.98;;;17.00;99.90;;;;;;5046485;28;20037;-72
2021/07/04 02:13:16;;;;;;;3.53;2.25;;;17.00;99.90;;;;;;5045877;28;20509;-72
2021/07/04 02:15:42;;;;;;;3.53;2.13;;;17.00;99.90;;;;;;5046385;28;20026;-71
2021/07/04 02:18:10;;;;;;;3.45;2.10;;;17.00;99.90;;;;;;5046213;28;20037;-70
2021/07/04 02:20:47;;;;;;;2.63;1.70;;;17.00;99.90;;;;;;5046453;28;20033;-72
2021/07/04 02:23:17;;;;;;;2.90;1.65;;;17.00;99.90;;;;;;5046695;28;20089;-71
2021/07/04 02:25:45;;;;;;;2.83;1.38;;;16.80;99.90;;;;;;5045866;28;20025;-71
2021/07/04 02:28:13;;;;;;;3.15;1.80;;;16.80;99.90;;;;;;5044877;28;20025;-72
2021/07/04 02:30:40;;;;;;;4.45;2.33;;;16.80;99.90;;;;;;5045037;28;20061;-72
2021/07/04 02:33:17;;;;;;;3.58;2.03;;;16.80;99.90;;;;;;5046089;28;20081;-72
2021/07/04 02:35:45;;;;;;;2.72;2.00;;;16.70;99.90;;;;;;5045937;28;20057;-72
2021/07/04 02:38:11;;;;;;;5.28;2.10;;;16.70;99.90;;;;;;5046173;28;20021;-72
2021/07/04 02:40:38;;;;;;;4.38;2.35;;;16.70;99.90;;;;;;5045668;28;20183;-72
2021/07/04 02:43:08;;;;;;;3.03;1.95;;;16.60;99.90;;;;;;5044772;28;20029;-73
2021/07/04 02:45:35;;;;;;;2.65;1.60;;;16.60;99.90;;;;;;5046020;28;20024;-73
2021/07/04 02:48:00;;;;;;;3.95;2.33;;;16.50;99.90;;;;;;5045547;28;20021;-72
2021/07/04 02:50:26;;;;;;;4.28;2.42;;;16.50;99.90;;;;;;5045832;28;20033;-73
2021/07/04 02:52:53;;;;;;;3.85;2.17;;;16.40;99.90;;;;;;5046057;28;20470;-72
2021/07/04 02:55:21;;;;;;;4.25;2.63;;;16.40;99.90;;;;;;5045161;28;20057;-72
2021/07/04 02:57:47;;;;;;;3.75;2.40;;;16.40;99.90;;;;;;5045664;28;20025;-73
2021/07/04 03:00:15;;;;;;;6.53;2.38;;;16.40;99.90;;;;;;5045789;28;20117;-72
2021/07/04 03:02:41;;;;;;;5.53;2.47;;;16.40;99.90;;;;;;5045404;28;20025;-72
2021/07/04 03:05:08;;;;;;;5.47;2.97;;;16.40;99.90;;;;;;5045472;28;20033;-71
2021/07/04 03:07:35;;;;;;;4.38;2.70;;;16.30;99.90;;;;;;5045173;28;20076;-71
2021/07/04 03:10:00;;;;;;;5.30;2.45;;;16.30;99.90;;;;;;5045378;28;20035;-71
2021/07/04 03:12:27;;;;;;;5.18;2.53;;;16.50;99.90;;;;;;5045420;28;20077;-71
2021/07/04 03:14:53;;;;;;;3.97;2.63;;;16.40;99.90;;;;;;5045080;28;20033;-72
2021/07/04 03:17:18;;;;;;;5.50;2.50;;;16.40;99.90;;;;;;5045204;28;20026;-71
2021/07/04 03:19:44;;;;;;;4.65;2.45;;;16.40;99.90;;;;;;5044497;28;20030;-72
2021/07/04 03:22:10;;;;;;;5.00;2.63;;;16.40;99.90;;;;;;5044856;28;20036;-72
2021/07/04 03:24:36;;;;;;;3.42;2.42;;;16.50;99.90;;;;;;5045044;28;20497;-73
2021/07/04 03:27:01;;;;;;;4.65;2.65;;;16.40;99.90;;;;;;5045003;28;20021;-72
2021/07/04 03:29:27;;;;;;;4.72;2.78;;;16.30;99.90;;;;;;5044847;28;20104;-72
2021/07/04 03:31:53;;;;;;;3.55;2.17;;;16.30;99.90;;;;;;5045317;28;20049;-71
2021/07/04 03:34:18;;;;;;;3.38;1.98;;;16.30;99.90;;;;;;5044578;28;20040;-70
2021/07/04 03:36:44;;;;;;;5.60;2.30;;;16.30;99.90;;;;;;5044257;28;20025;-71
2021/07/04 03:39:12;;;;;;;3.95;2.40;;;16.30;99.90;;;;;;5044459;28;20029;-72
2021/07/04 03:41:37;;;;;;;3.50;2.40;;;16.30;99.90;;;;;;5044152;28;20509;-71
2021/07/04 03:44:03;;;;;;;4.60;2.28;;;16.40;99.90;;;;;;5044057;28;20041;-72
2021/07/04 03:46:29;;;;;;;5.13;2.65;;;16.40;99.90;;;;;;5045003;28;20025;-72
2021/07/04 03:48:55;;;;;;;3.92;2.47;;;16.40;99.90;;;;;;5044059;28;20060;-71
2021/07/04 03:51:23;;;;;;;10.38;3.20;;;16.50;99.90;;;;;;5044565;28;20085;-73
2021/07/04 03:53:49;;;;;;;5.55;2.88;;;16.50;99.90;;;;;;5044187;28;20464;-72
2021/07/04 03:56:15;;;;;;;8.73;3.10;;;16.60;99.90;;;;;;5044661;28;20068;-71
2021/07/04 03:58:41;;;;;;;6.28;3.33;;;16.60;99.90;;;;;;5044229;28;20026;-71
2021/07/04 04:01:07;;;;;;;4.68;2.65;;;16.70;99.90;;;;;;5043956;28;20033;-72
2021/07/04 04:03:39;;;;;;;6.35;2.78;;;16.70;99.90;;;;;;5042656;28;20044;-72
2021/07/04 04:06:04;;;;;;;4.60;2.90;;;16.70;99.90;;;;;;5044446;28;20026;-72
2021/07/04 04:08:30;;;;;;;4.78;2.80;;;16.70;99.90;;;;;;5044134;28;20390;-71
2021/07/04 04:10:56;;;;;;;7.07;3.25;;;16.80;99.90;;;;;;5044600;28;20026;-71
2021/07/04 04:13:22;;;;;;;3.83;2.45;;;16.90;99.90;;;;;;5044522;28;20029;-72
2021/07/04 04:15:47;;;;;;;3.63;2.20;;;16.80;99.90;;;;;;5043988;28;20029;-72
2021/07/04 04:18:14;;;;;;;6.45;3.63;;;16.90;99.90;;;;;;5043617;28;20022;-71
2021/07/04 04:20:40;;;;;;;6.50;2.70;;;16.80;99.90;;;;;;5044244;28;20029;-71
2021/07/04 04:23:05;;;;;;;3.63;2.88;;;17.00;99.90;;;;;;5043810;28;20051;-71
2021/07/04 04:25:31;;;;;;;4.60;2.40;;;17.00;99.90;;;;;;5043769;28;20040;-71
2021/07/04 04:27:57;;;;;;;7.60;3.58;;;17.00;99.90;;;;;;5043949;28;20028;-73
2021/07/04 04:30:22;;;;;;;6.75;3.33;;;16.90;99.90;;;;;;5044106;28;20029;-71
2021/07/04 04:32:49;;;;;;;5.38;3.15;;;17.00;99.90;;;;;;5042706;28;20041;-72
2021/07/04 04:35:15;;;;;;;4.05;2.58;;;16.90;99.90;;;;;;5043846;28;20033;-71
2021/07/04 04:37:47;;;;;;;18.25;3.78;;;16.90;99.90;;;;;;5043643;28;20093;-71
2021/07/04 04:40:13;;;;;;;5.30;2.88;;;16.90;99.90;;;;;;5043599;28;20027;-72
2021/07/04 04:42:39;;;;;;;5.15;2.72;;;16.90;99.90;;;;;;5044002;28;20049;-71
2021/07/04 04:45:06;;;;;;;4.10;2.85;;;16.90;99.90;;;;;;5043922;28;20791;-72
2021/07/04 04:47:31;;;;;;;10.60;3.40;;;16.90;99.90;;;;;;5043412;28;20052;-72
2021/07/04 04:49:57;;;;;;;7.25;3.20;;;16.90;99.90;;;;;;5044095;28;20025;-72
2021/07/04 04:52:23;;;;;;;6.40;3.05;;;16.90;99.90;;;;;;5042536;28;20056;-71
2021/07/04 04:54:48;;;;;;;4.65;2.75;;;16.90;99.90;;;;;;5043703;28;20041;-71
2021/07/04 04:57:14;;;;;;;4.45;2.67;;;17.00;99.90;;;;;;5042111;28;20026;-71
2021/07/04 04:59:40;;;;;;;7.63;3.55;;;17.00;99.90;;;;;;5043577;28;20386;-71
2021/07/04 05:02:06;;;;;;;4.05;2.40;;;17.00;99.90;;;;;;5043658;28;20112;-71
2021/07/04 05:04:32;;;;;;;4.90;3.17;;;17.10;99.90;;;;;;5042159;28;20041;-71
2021/07/04 05:06:58;;;;;;;6.57;3.63;;;17.10;99.90;;;;;;5045015;28;20037;-72
2021/07/04 05:09:25;;;;;;;6.85;3.33;;;17.10;99.90;;;;;;5046662;28;20045;-72
2021/07/04 05:11:51;;;;;;;5.80;2.83;;;17.10;99.90;;;;;;5045547;28;20033;-72
2021/07/04 05:14:17;;;;;;;5.85;3.22;;;17.10;99.90;;;;;;5047427;28;20044;-71
2021/07/04 05:16:44;;;;;;;6.13;3.33;;;17.20;99.90;;;;;;5047140;28;20033;-71
2021/07/04 05:19:11;;;;;;;5.22;3.47;;;17.20;99.90;;;;;;5047733;28;20061;-72
2021/07/04 05:21:37;;;;;;;3.20;2.50;;;17.20;99.90;;;;;;5045749;28;20032;-73
2021/07/04 05:24:04;;;;;;;9.57;3.95;;;17.20;99.90;;;;;;5047234;28;20033;-73
2021/07/04 05:26:30;;;;;;;4.28;3.00;;;17.20;99.90;;;;;;5047174;28;20025;-72
2021/07/04 05:28:56;;;;;;;4.05;3.03;;;17.20;99.90;;;;;;5046952;28;20870;-73
2021/07/04 05:31:23;;;;;;;4.38;2.65;;;17.20;99.90;;;;;;5047708;28;20029;-72
2021/07/04 05:33:48;;;;;;;7.25;3.90;;;17.20;99.90;;;;;;5047714;28;20025;-71
2021/07/04 05:36:14;;;;;;;4.88;2.85;;;17.20;99.90;;;;;;5047005;28;20040;-72
2021/07/04 05:38:43;;;;;;;6.63;3.45;;;17.20;99.90;;;;;;5046965;28;20022;-72
2021/07/04 05:41:11;;;;;;;12.18;3.42;;;17.20;99.90;;;;;;5047321;28;20026;-72
2021/07/04 05:43:38;;;;;;;6.10;3.50;;;17.20;99.90;;;;;;5045185;28;20033;-72
2021/07/04 05:46:04;;;;;;;6.63;2.92;;;17.20;99.90;;;;;;5045328;28;20030;-72
2021/07/04 05:48:29;;;;;;;4.85;3.03;;;17.20;99.90;;;;;;5045953;28;20022;-72
2021/07/04 05:50:56;;;;;;;4.53;3.20;;;17.30;99.90;;;;;;5047115;28;20079;-72
2021/07/04 05:53:21;;;;;;;5.05;2.92;;;17.30;99.90;;;;;;5045593;28;20101;-72
2021/07/04 05:55:47;;;;;;;4.53;2.95;;;17.30;99.90;;;;;;5046865;28;20047;-72
2021/07/04 05:58:13;;;;;;;6.43;3.45;;;17.40;99.90;;;;;;5045369;28;20105;-71
2021/07/04 06:00:39;;;;;;;5.45;3.40;;;17.40;99.90;;;;;;5046269;28;20032;-72
2021/07/04 06:03:05;;;;;;;5.63;3.22;;;17.50;99.90;;;;;;5046342;28;20136;-72
2021/07/04 06:05:31;;;;;;;8.48;3.30;;;17.60;99.90;;;;;;5046014;28;20034;-72
2021/07/04 06:07:57;;;;;;;11.25;3.72;;;17.70;99.90;;;;;;5046784;28;20025;-75
2021/07/04 06:10:23;;;;;;;5.22;3.05;;;17.70;99.90;;;;;;5046089;28;20528;-72
2021/07/04 06:12:48;;;;;;;5.93;3.03;;;17.80;99.90;;;;;;5046749;28;20093;-73
2021/07/04 06:15:14;;;;;;;5.65;3.25;;;17.70;99.90;;;;;;5045256;28;20025;-70
2021/07/04 06:17:41;;;;;;;7.40;3.63;;;17.80;99.90;;;;;;5045194;28;20037;-71
2021/07/04 06:20:08;;;;;;;5.50;3.58;;;17.80;99.90;;;;;;5046312;28;20022;-71
2021/07/04 06:22:35;;;;;;;5.35;3.30;;;17.80;99.90;;;;;;5061487;28;20025;-71
2021/07/04 06:25:03;;;;;;;6.93;3.30;;;17.90;99.90;;;;;;5045942;28;20068;-72
2021/07/04 06:27:29;;;;;;;9.80;3.72;;;17.90;99.90;;;;;;5046359;28;20073;-71
2021/07/04 06:29:54;;;;;;;5.13;3.15;;;17.90;99.90;;;;;;5045908;28;20056;-71
2021/07/04 06:32:20;;;;;;;12.57;4.45;;;17.90;99.90;;;;;;5045717;28;20030;-71
2021/07/04 06:34:46;;;;;;;8.27;4.28;;;17.90;99.90;;;;;;5044763;28;20034;-71
2021/07/04 06:37:11;;;;;;;7.38;4.10;;;18.00;99.90;;;;;;5045951;28;20079;-70
2021/07/04 06:39:37;;;;;;;7.32;4.07;;;18.00;99.90;;;;;;5044679;28;20044;-72
2021/07/04 06:42:03;;;;;;;14.57;4.95;;;18.10;99.90;;;;;;5045679;28;20053;-69
2021/07/04 06:44:28;;;;;;;5.45;3.80;;;18.10;99.90;;;;;;5045732;28;20044;-71
2021/07/04 06:46:54;;;;;;;9.35;4.43;;;18.20;99.90;;;;;;5045726;28;20029;-71
2021/07/04 06:49:20;;;;;;;7.93;4.10;;;18.40;99.90;;;;;;5045815;28;20763;-71
2021/07/04 06:51:45;;;;;;;6.10;3.95;;;18.50;99.90;;;;;;5045678;28;20025;-70
2021/07/04 06:54:11;;;;;;;7.32;4.20;;;18.60;99.90;;;;;;5039753;28;20069;-70
2021/07/04 06:56:37;;;;;;;8.88;4.03;;;18.70;99.90;;;;;;5044517;28;20029;-71
2021/07/04 06:59:02;;;;;;;6.82;4.05;;;18.70;99.90;;;;;;5045202;28;20022;-71
2021/07/04 07:01:28;;;;;;;11.85;4.35;;;18.80;99.90;;;;;;5045417;28;20613;-72
2021/07/04 07:03:54;;;;;;;8.70;4.40;;;18.90;99.90;;;;;;5045705;28;20037;-72
2021/07/04 07:06:20;;;;;;;6.85;4.15;;;18.90;99.90;;;;;;5045695;28;20033;-71
2021/07/04 07:08:47;;;;;;;7.30;3.85;;;19.00;99.90;;;;;;5061083;28;20029;-70
2021/07/04 07:11:13;;;;;;;6.93;3.78;;;18.90;99.90;;;;;;5045503;28;20028;-71
2021/07/04 07:13:39;;;;;;;6.75;4.13;;;19.10;99.90;;;;;;5044681;28;20017;-71
2021/07/04 07:16:04;;;;;;;7.68;4.47;;;19.10;99.90;;;;;;5045198;28;20057;-71
2021/07/04 07:18:30;;;;;;;7.22;4.32;;;19.10;99.90;;;;;;5044160;28;20029;-70
2021/07/04 07:20:56;;;;;;;8.80;4.00;;;19.10;99.90;;;;;;5044880;28;20454;-72
2021/07/04 07:23:22;;;;;;;7.38;4.10;;;19.10;99.90;;;;;;5044966;28;20034;-71
2021/07/04 07:25:47;;;;;;;6.55;4.10;;;19.20;99.90;;;;;;5043839;28;20029;-70
2021/07/04 07:28:13;;;;;;;6.45;4.05;;;19.20;99.90;;;;;;5045130;28;20029;-70
2021/07/04 07:30:39;;;;;;;5.88;3.95;;;19.20;99.90;;;;;;5044991;28;20041;-71
2021/07/04 07:33:04;;;;;;;7.90;4.20;;;19.30;99.90;;;;;;5045083;28;20061;-71
2021/07/04 07:35:32;;;;;;;8.25;4.38;;;19.30;99.90;;;;;;5044795;28;20029;-72
2021/07/04 07:38:01;;;;;;;5.38;4.00;;;19.30;99.90;;;;;;5045194;28;20043;-70
2021/07/04 07:40:29;;;;;;;6.88;4.47;;;19.30;99.90;;;;;;5043669;28;20029;-73
2021/07/04 07:42:55;;;;;;;9.65;4.78;;;19.40;99.90;;;;;;5045017;28;20025;-72
2021/07/04 07:45:20;;;;;;;10.30;4.40;;;19.50;99.90;;;;;;5045048;28;20064;-72
2021/07/04 07:47:46;;;;;;;10.13;4.35;;;19.50;99.90;;;;;;5044782;28;20028;-71
2021/07/04 07:50:12;;;;;;;6.70;4.40;;;19.60;99.90;;;;;;5044648;28;20030;-72
2021/07/04 07:52:38;;;;;;;7.38;4.07;;;19.70;99.90;;;;;;5044753;28;20482;-72
2021/07/04 07:55:05;;;;;;;10.57;5.20;;;19.70;99.90;;;;;;5044239;28;20068;-72
2021/07/04 07:57:31;;;;;;;9.00;5.07;;;19.70;99.90;;;;;;5045013;28;20028;-69
2021/07/04 07:59:57;;;;;;;7.72;4.30;;;19.80;99.90;;;;;;5043867;28;20030;-71
2021/07/04 08:02:23;;;;;;;10.23;4.82;;;19.90;99.90;;;;;;5044177;28;20037;-72
2021/07/04 08:04:50;;;;;;;9.23;4.88;;;20.00;99.90;;;;;;5044610;28;20052;-72
2021/07/04 08:07:16;;;;;;;11.35;4.93;;;19.90;99.90;;;;;;5044673;28;20099;-72
2021/07/04 08:09:41;;;;;;;7.30;4.50;;;20.00;99.90;;;;;;5044199;28;20018;-68
2021/07/04 08:12:07;;;;;;;14.73;4.35;;;20.00;99.90;;;;;;5044093;28;20048;-69
2021/07/04 08:14:33;;;;;;;7.97;4.75;;;20.00;99.90;;;;;;5042952;28;20109;-70
2021/07/04 08:17:00;;;;;;;7.15;3.88;;;20.00;99.90;;;;;;5044286;28;20386;-69
2021/07/04 08:19:25;;;;;;;8.75;4.88;;;20.10;99.90;;;;;;5044569;28;20033;-71
2021/07/04 08:21:51;;;;;;;7.35;4.43;;;20.00;99.90;;;;;;5043411;28;20033;-70
2021/07/04 08:24:17;;;;;;;8.50;5.00;;;20.00;99.90;;;;;;5042995;28;20042;-69
2021/07/04 08:26:42;;;;;;;11.43;4.75;;;20.00;99.90;;;;;;5043547;28;20026;-70
2021/07/04 08:29:08;;;;;;;9.23;5.60;;;20.00;99.90;;;;;;5043537;28;20038;-70
2021/07/04 08:31:33;;;;;;;7.93;4.40;;;19.90;99.90;;;;;;5043476;28;20037;-70
2021/07/04 08:33:59;;;;;;;10.57;5.45;;;19.90;99.90;;;;;;5043738;28;20052;-70
2021/07/04 08:36:26;;;;;;;8.57;4.97;;;19.90;99.90;;;;;;5042855;28;20052;-72
2021/07/04 08:38:53;;;;;;;7.85;4.88;;;19.90;99.90;;;;;;5044415;28;20033;-71
2021/07/04 08:41:18;;;;;;;9.70;5.47;;;19.80;99.90;;;;;;5044179;28;20494;-70
2021/07/04 08:43:44;;;;;;;16.15;5.63;;;19.90;99.90;;;;;;5047817;28;20044;-71
2021/07/04 08:46:11;;;;;;;11.68;5.00;;;19.80;99.90;;;;;;5046620;28;20085;-71
2021/07/04 08:48:39;;;;;;;13.55;5.13;;;19.80;99.90;;;;;;5048390;28;20017;-69
2021/07/04 08:51:05;;;;;;;7.75;4.88;;;19.80;99.90;;;;;;5047553;28;20040;-70
2021/07/04 08:53:31;;;;;;;10.75;5.65;;;19.70;99.90;;;;;;5047836;28;20029;-72
2021/07/04 08:55:58;;;;;;;11.88;6.43;;;19.70;99.90;;;;;;5046823;28;20036;-70
2021/07/04 08:58:26;;;;;;;11.50;6.28;;;19.80;99.90;;;;;;5046611;28;20037;-71
2021/07/04 09:01:21;;;;;;;9.45;5.28;;;19.90;99.90;;;;;;5046756;28;20563;-73
2021/07/04 09:03:50;;;;;;;10.20;5.93;;;19.90;99.90;;;;;;5062702;28;20517;-71
2021/07/04 09:06:36;;;;;;;10.73;5.97;;;19.90;99.90;;;;;;5046743;28;20026;-72
2021/07/04 09:09:24;;;;;;;8.85;5.35;;;20.00;99.90;;;;;;5047599;28;20025;-72
2021/07/04 09:12:04;;;;;;;13.25;6.78;;;20.10;99.90;;;;;;5047695;28;20030;-70
2021/07/04 09:14:32;;;;;;;11.68;5.53;;;20.20;99.90;;;;;;5047400;28;20057;-71
2021/07/04 09:17:00;;;;;;;8.38;5.32;;;20.30;99.90;;;;;;5044128;28;20389;-72
2021/07/04 09:19:26;;;;;;;8.38;5.90;;;20.40;99.90;;;;;;5045224;28;20029;-73
2021/07/04 09:22:07;;;;;;;8.80;5.80;;;20.40;99.90;;;;;;5046874;28;20041;-70
2021/07/04 09:24:43;;;;;;;11.70;5.53;;;20.60;99.90;;;;;;5046788;28;20057;-71
2021/07/04 09:27:14;;;;;;;13.70;5.60;;;20.70;99.90;;;;;;5047773;28;20021;-72
2021/07/04 09:29:53;;;;;;;10.93;5.40;;;20.80;99.90;;;;;;5046120;28;20029;-70
2021/07/04 09:32:20;;;;;;;8.18;4.72;;;20.90;99.90;;;;;;5044759;28;20048;-71
2021/07/04 09:35:05;;;;;;;8.02;4.45;;;21.10;99.90;;;;;;5045033;28;20044;-71
2021/07/04 09:37:32;;;;;;;8.38;4.22;;;21.20;99.90;;;;;;5044754;28;20093;-71
2021/07/04 09:40:18;;;;;;;13.23;4.43;;;21.30;99.90;;;;;;5045639;28;20037;-71
2021/07/04 09:43:18;;;;;;;7.50;3.60;;;21.50;99.90;;;;;;5044228;28;20109;-71
2021/07/04 09:46:04;;;;;;;7.40;3.70;;;21.60;99.90;;;;;;5044014;28;20041;-71
2021/07/04 09:48:29;;;;;;;8.63;4.72;;;21.70;99.90;;;;;;5041814;28;20037;-68
2021/07/04 09:51:11;;;;;;;6.82;3.53;;;21.80;99.90;;;;;;5046727;28;20068;-70
2021/07/04 09:53:45;;;;;;;5.45;3.30;;;21.90;99.90;;;;;;5045111;28;20116;-69
2021/07/04 09:56:12;;;;;;;5.90;3.20;;;21.90;99.90;;;;;;5047090;28;20025;-71
2021/07/04 09:58:39;;;;;;;6.50;3.38;;;22.00;99.90;;;;;;5046469;28;20026;-69
2021/07/04 10:01:05;;;;;;;6.40;3.55;;;22.00;99.90;;;;;;5046632;28;20025;-69
2021/07/04 10:03:30;;;;;;;5.72;3.83;;;22.00;99.90;;;;;;5046658;28;20033;-70
2021/07/04 10:06:02;;;;;;;8.20;4.45;;;21.90;99.90;;;;;;5046411;28;20029;-69
2021/07/04 10:08:30;;;;;;;5.90;3.20;;;21.80;99.90;;;;;;5045736;28;20029;-70
2021/07/04 10:10:58;;;;;;;5.55;2.95;;;21.70;99.90;;;;;;5046809;28;20033;-69
2021/07/04 10:13:25;;;;;;;3.90;2.88;;;21.70;99.90;;;;;;5046304;28;20033;-70
2021/07/04 10:15:51;;;;;;;7.22;2.85;;;21.70;99.90;;;;;;5046462;28;20081;-70
2021/07/04 10:18:18;;;;;;;7.43;3.45;;;21.60;99.90;;;;;;5046512;28;20065;-69
2021/07/04 10:20:46;;;;;;;4.22;2.38;;;21.60;99.90;;;;;;5045916;28;20076;-72
2021/07/04 10:23:15;;;;;;;4.07;2.88;;;21.60;99.90;;;;;;5045882;28;20039;-71
2021/07/04 10:25:43;;;;;;;4.43;2.53;;;21.60;99.90;;;;;;5046468;28;20432;-71
2021/07/04 10:28:11;;;;;;;2.95;2.00;;;21.60;99.90;;;;;;5045784;28;20026;-70
2021/07/04 10:30:41;;;;;;;3.08;1.77;;;21.80;99.90;;;;;;5045966;28;20029;-72
2021/07/04 10:33:26;;;;;;;3.47;2.15;;;21.90;99.90;;;;;;5046204;28;20105;-71
2021/07/04 10:36:20;;;;;;;2.97;2.03;;;22.10;99.90;;;;;;5045955;28;20026;-69
2021/07/04 10:38:57;;;;;;;3.67;2.38;;;22.30;99.90;;;;;;5046221;28;20088;-70
2021/07/04 10:41:34;;;;;;;4.53;2.35;;;22.40;99.90;;;;;;5046061;28;20033;-71
2021/07/04 10:44:07;;;;;;;4.45;2.00;;;22.50;99.90;;;;;;5045909;28;20037;-70
2021/07/04 10:46:45;;;;;;;6.95;2.85;;;22.60;99.90;;;;;;5045880;28;20049;-71
2021/07/04 10:49:17;;;;;;;5.22;2.25;;;22.60;99.90;;;;;;5044868;28;20049;-70
2021/07/04 10:52:02;;;;;;;7.72;2.85;;;22.60;99.90;;;;;;5045780;28;20057;-69
2021/07/04 10:54:53;;;;;;;4.95;3.08;;;22.60;99.90;;;;;;5045606;28;20063;-69
2021/07/04 10:57:26;;;;;;;4.07;2.63;;;22.60;99.90;;;;;;5045969;28;20029;-70
2021/07/04 11:00:04;;;;;;;5.18;3.20;;;22.50;99.90;;;;;;5045854;28;20543;-69
2021/07/04 11:02:56;;;;;;;6.60;3.00;;;22.50;99.90;;;;;;5045827;28;20049;-69
2021/07/04 11:05:35;;;;;;;4.65;2.38;;;22.50;99.90;;;;;;5060449;28;20044;-68
2021/07/04 11:08:15;;;;;;;5.53;2.88;;;22.40;99.90;;;;;;5045450;28;20055;-70
2021/07/04 11:11:12;;;;;;;5.97;3.20;;;22.40;99.90;;;;;;5045292;28;20032;-70
2021/07/04 11:13:43;;;;;;;4.60;2.90;;;22.30;99.90;;;;;;5045570;28;20398;-70
2021/07/04 11:16:11;;;;;;;9.52;3.28;;;22.30;99.90;;;;;;5045308;28;20025;-69
2021/07/04 11:18:42;;;;;;;6.18;2.97;;;22.30;99.90;;;;;;5045063;28;20026;-70
2021/07/04 11:21:09;;;;;;;3.22;2.35;;;22.30;99.90;;;;;;5045012;28;20049;-70
2021/07/04 11:23:35;;;;;;;4.10;2.30;;;22.30;99.90;;;;;;5045031;28;20061;-68
2021/07/04 11:26:11;;;;;;;5.93;3.08;;;22.40;99.90;;;;;;5044526;28;20033;-68
2021/07/04 11:28:47;;;;;;;6.43;2.80;;;22.50;99.90;;;;;;5045243;28;20032;-69
2021/07/04 11:31:16;;;;;;;6.07;2.85;;;22.70;99.90;;;;;;5043670;28;20567;-70
2021/07/04 11:33:48;;;;;;;3.85;2.90;;;22.90;99.90;;;;;;5045025;28;20038;-68
2021/07/04 11:36:17;;;;;;;6.38;2.80;;;23.00;99.90;;;;;;5045214;28;20108;-68
2021/07/04 11:38:59;;;;;;;2.42;2.10;;;23.10;99.90;;;;;;5044679;28;20048;-71
2021/07/04 11:41:50;;;;;;;4.45;3.05;;;23.20;99.90;;;;;;5045003;28;20060;-70
2021/07/04 11:44:21;;;;;;;3.90;2.92;;;23.30;99.90;;;;;;5039823;28;20045;-73
2021/07/04 11:46:51;;;;;;;6.32;3.45;;;23.30;99.90;;;;;;5039948;28;20037;-70
2021/07/04 11:49:22;;;;;;;2.97;2.13;;;23.40;99.90;;;;;;5042890;28;20037;-71
2021/07/04 11:51:58;;;;;;;3.50;2.13;;;23.60;99.90;;;;;;5041977;28;20036;-70
2021/07/04 11:54:32;;;;;;;10.68;3.47;;;23.80;99.90;;;;;;5042699;28;20422;-70
2021/07/04 12:00:06;;;;;;;2.95;2.10;;;24.20;99.90;;;;;;5024874;28;20045;-69
2021/07/04 12:02:34;;;;;;;4.57;2.58;;;25.00;99.90;;;;;;5024057;28;20125;-71
2021/07/04 12:05:13;;;;;;;4.70;2.95;;;25.60;99.90;;;;;;5024229;28;20048;-72
2021/07/04 12:07:39;;;;;;;5.45;2.50;;;25.80;99.90;;;;;;5024089;28;20034;-70
2021/07/04 12:10:05;;;;;;;2.83;1.92;;;25.80;99.90;;;;;;5023957;28;20471;-69
2021/07/04 12:12:34;;;;;;;3.20;1.90;;;25.80;99.90;;;;;;5024124;28;20025;-69
2021/07/04 12:15:12;;;;;;;1.95;1.38;;;26.10;99.90;;;;;;5024062;28;20022;-70
2021/07/04 12:17:48;;;;;;;4.65;1.67;;;26.60;99.90;;;;;;5023655;28;20041;-69
2021/07/04 12:20:21;;;;;;;2.67;2.08;;;27.10;99.90;;;;;;5023511;28;20029;-69
2021/07/04 12:22:52;;;;;;;1.85;1.30;;;27.30;99.90;;;;;;5024030;28;20092;-71
2021/07/04 12:25:30;;;;;;;2.30;1.40;;;27.40;99.90;;;;;;5023956;28;20042;-70
2021/07/04 12:27:58;;;;;;;1.80;1.23;;;27.60;99.90;;;;;;5024334;28;20053;-71
2021/07/04 12:30:25;;;;;;;2.15;1.40;;;27.60;99.90;;;;;;5024091;28;20049;-70
2021/07/04 12:33:00;;;;;;;1.92;1.35;;;27.90;99.90;;;;;;5022492;28;20041;-70
2021/07/04 12:35:42;;;;;;;3.30;1.77;;;28.10;99.90;;;;;;5023345;28;20038;-74
2021/07/04 12:38:29;;;;;;;2.15;1.27;;;28.30;99.90;;;;;;5023563;28;20018;-68
2021/07/04 12:41:14;;;;;;;2.47;1.42;;;28.70;99.90;;;;;;5023839;28;20026;-68
2021/07/04 12:43:41;;;;;;;2.20;1.20;;;28.80;99.90;;;;;;5023430;28;20026;-71
2021/07/04 12:46:17;;;;;;;3.50;1.80;;;28.90;99.90;;;;;;5023789;28;20032;-70
2021/07/04 12:48:45;;;;;;;2.08;1.02;;;29.00;99.90;;;;;;5021353;28;20467;-72
2021/07/04 12:51:11;;;;;;;1.58;1.30;;;29.10;99.90;;;;;;5039687;28;20018;-71
2021/07/04 12:53:44;;;;;;;1.60;1.23;;;29.30;99.90;;;;;;5043253;28;20025;-70
2021/07/04 12:56:31;;;;;;;4.95;1.52;;;29.50;99.90;;;;;;5041468;28;20032;-74